Search for airport 
image banner adimage banner adimage banner ad
image banner ad

PS20 - Fairview Farm Airfield

Located in Pine Grove, United States

ICAO - PS20, IATA -

Data provided by Airmate  

General information

Coordinates: N40°32'0" W76°27'44"
Elevation is 600 feet MSL.
Magnetic variation is -11° East
View others Airports in Pennsylvania

Operational data

Special qualification required
Current time UTC:
Current local time:
METAR: KMUI 091546Z AUTO 19004KT 10SM -DZ FEW040 SCT050 11/02 A3008 RMK AO2 DZB46 SLP190
View NOTAMs / SUP AIP / TFR affecting this airport [VIEW]
Communications frequencies: [VIEW]

Runways:

RWY identifierQFULength (ft)Width (ft)SurfaceLDA (ft)
162000100GRASS
342000100GRASS

Airport contact information

Address: Pine Grove United States

Satellite view of PS20